1977     Torrent     time     1977     saga05     1977     1977     75-pdf     one piece 006     no1     the-dirt-2019     1977     watson s01e 1080p     the-seven-deadly-sins     Casting Off     tinymodel amber     Godzilla kong     Primal 2019     1977     f1-26    

Unusual wallpaper, for psychedelic lovers

seeders: 1
leechers: 0
Added 16 years ago by gvm1990 in Other  > Wallpapers

Download Fast Safe Anonymous
movies, software, shows...

Files

Unusual wallpaper, for psychedelic lovers (Size: 10.25 MB)
  20050309_grustnyj_wallpapers_ru_ptitsa_1024x768_A(77349).jpg?042148 272.13 KB
  20050309_ndrw_wallpapers_ru_ultraviolet_1024x768_A(77350).jpg?042148 88.52 KB
  20050309_nuclear_wallpapers_ru_kruglaya_fantaziya_return_1280x1024_A(77348).jpg?042148 131.16 KB
  20050311_deep_wallpapers_ru_in_the_dark_1024x768_A(77483).jpg?042148 427.94 KB
  20050328_kod_wallpapers_ru_ostrovok_1600x1200_A(78958).jpg?042148 486.19 KB
  20050407_antolnt_wallpapers_ru_hranitel_lesnyh_aromatov_1152x864_A(80000).jpg?042148 432.33 KB
  20050407_ronnie_wallpapers_ru_extreme_1600x1200_B(79975).jpg?042148 304.78 KB
  20050407_ser_wallpapers_ru_zhara_1024x768_B(80001).jpg?042148 392.88 KB
  20050408_floaty_wallpapers_ru_net_puti_nazad_1280x1024_A(80086).jpg?042148 141.62 KB
  20050408_grustniykot_wallpapers_ru_sweet_angel_1024x768_A(80084).jpg?042148 79.84 KB
  20050408_kod_wallpapers_ru_maska_1600x1200_A(80128).jpg?042148 435.55 KB
  20050408_leshik_wallpapers_ru_pryachuschijsya_1280x960_A(80082).jpg?042148 104.4 KB
  20050408_lukunder_wallpapers_ru_work_1600x1200_A(80081).jpg?042148 149.53 KB
  20050408_usoltsev_wallpapers_ru_svobodnyj_put_1280x1024_B(80085).jpg?042148 254.06 KB
  20050408_zaa_wallpapers_ru_na_granitse_1024x768_B(80102).jpg?042148 108.58 KB
  20050410_ajk_wallpapers_ru_vremya_ne_imeet_znacheniya8230_1024x768_A(80158).jpg?042148 437.33 KB
  20050410_vom_wallpapers_ru_ne_brosajte_1280x960_A(80172).jpg?042148 181.36 KB
  20050804_leshik_wallpapers_ru_sluchajnaya_vstrecha_1280x960_A(87378).jpg?042148 264.64 KB
  20050805_dasm_wallpapers_ru_moons_1024x768_A(87428).jpg?042148 168.82 KB
  20050805_fearsas_wallpapers_ru_bez_tebya_ya_odin8230_remake_1280x1024_A(87472).jpg?042148 281.78 KB
  20050805_luchik_wallpapers_ru_arhangel_1024x768_A(87471).jpg?042148 257.16 KB
  20050806_deep_wallpapers_ru_loen_wall_1024x768_A(87501).jpg?042148 323.96 KB
  20050806_dixon_wallpapers_ru_the_soldiers_post_1152x864_A(87535).jpg?042148 271.36 KB
  20050807_stasxp_wallpapers_ru_wallpapers_v_zhizni8230_1024x768_B(87549).jpg?042148 110 KB
  20050809_frantic_wallpapers_ru_dont_eat_wallpapersru_1600x1200_A(87696).jpg?042148 310.29 KB
  20050809_iunewind_wallpapers_ru_podschityvayuschaya_vremya_mashina_1280x960_B(87700).jpg?042148 386.27 KB
  20050809_loris_wallpapers_ru_fish8230_1600x1200_A(87716).jpg?042148 459.99 KB
  20050809_ndrw_wallpapers_ru_morfij_1024x768_A(87734).jpg?042148 170.11 KB
  20050809_nicotin_wallpapers_ru_guest_mode_1024x768_A(87717).jpg?042148 270.63 KB
  20050809_spacemanft_wallpapers_ru_love_is_a_battle_1280x960_A(87663).jpg?042148 302.52 KB
  20050810_cethy11_wallpapers_ru_get_up_1280x1024_A(87769).jpg?042148 242.56 KB
  20050810_fantazer_wallpapers_ru_vozvraschenie_1024x768_B(87794).jpg?042148 75.41 KB
  20050811_cethy11_wallpapers_ru_not_alone_1280x1024_A(87831).jpg?042148 219.37 KB
  20050811_haosferatu_wallpapers_ru_estelle_dream_1024x768_A(87849).jpg?042148 183.83 KB
  20050811_ser_wallpapers_ru_rx_01375_1024x768_A(87860).jpg?042148 423.07 KB
  20050811_spacemanft_wallpapers_ru_love_is_a_battlenbsp8212_the_true_dragon_1280x960_A(87830).jpg?042148 212.25 KB
  20050811_zeak_wallpapers_ru_vault_13_1152x864_B(87820).jpg?042148 258.86 KB
  wallpapers_ru_020802_pomahbl4_arter.jpg?042148 149.79 KB
  wallpapers_ru_020811_bonez_diary_of_dreams.jpg?042148 318.59 KB
  wallpapers_ru_020815_bonez_wound.jpg?042148 409.5 KB
  ▲ 40 total files

Description


Разное » Разное (раздачи) » Обои

Название раздачи

[hr]
Тематика картинок: Арт
Количество: 41
Разрешение: [1024x768, 1600x1200, 1152x864]
Описание: Необычные арт обои с дисков журнала PC игры.

[spoiler="Скриншоты"]



[/spoiler]